Time;durP1;ratioP1;P1;durP2;ratioP2;P2;SDS_P1;SDS_P2;PMS_P1;PMS_P2;Temp;Humidity;BMP_temperature;BMP_pressure;BME280_temperature;BME280_humidity;BME280_pressure;Samples;Min_cycle;Max_cycle;Signal;HPM_P1;HPM_P2
2022/04/15 00:00:04;;;;;;;3.90;1.15;;;;;;;;;;5053759;28;20469;-71
2022/04/15 00:02:31;;;;;;;3.58;1.00;;;;;;;;;;5051284;28;20079;-72
2022/04/15 00:04:59;;;;;;;3.33;0.93;;;;;;;;;;5052180;28;20404;-72
2022/04/15 00:07:26;;;;;;;2.83;0.90;;;;;;;;;;5053721;28;20016;-71
2022/04/15 00:09:53;;;;;;;3.55;1.17;;;;;;;;;;5052665;28;20058;-71
2022/04/15 00:12:28;;;;;;;3.50;0.88;;;;;;;;;;5052242;28;20021;-72
2022/04/15 00:14:56;;;;;;;1.75;0.80;;;;;;;;;;5053477;28;20040;-71
2022/04/15 00:17:23;;;;;;;2.25;0.90;;;;;;;;;;5052123;28;20078;-71
2022/04/15 00:19:50;;;;;;;3.00;1.20;;;;;;;;;;5053352;28;20017;-72
2022/04/15 00:22:18;;;;;;;4.00;1.08;;;;;;;;;;5053310;28;20497;-71
2022/04/15 00:24:45;;;;;;;4.18;1.42;;;;;;;;;;5051900;28;20082;-71
2022/04/15 00:27:13;;;;;;;3.28;1.02;;;;;;;;;;5051639;28;20443;-71
2022/04/15 00:29:40;;;;;;;3.88;1.10;;;;;;;;;;5053135;28;20032;-71
2022/04/15 00:32:07;;;;;;;2.17;0.90;;;;;;;;;;5053139;28;20056;-71
2022/04/15 00:34:35;;;;;;;3.53;1.33;;;;;;;;;;5051880;28;20049;-72
2022/04/15 00:37:02;;;;;;;3.03;1.00;;;;;;;;;;5053112;28;20017;-72
2022/04/15 00:39:30;;;;;;;1.83;0.80;;;;;;;;;;5051744;28;20031;-72
2022/04/15 00:41:58;;;;;;;4.35;0.90;;;;;;;;;;5053014;28;20037;-72
2022/04/15 00:44:25;;;;;;;2.78;0.93;;;;;;;;;;5051714;28;20041;-72
2022/04/15 00:46:52;;;;;;;1.70;0.65;;;;;;;;;;5052959;28;20367;-71
2022/04/15 00:49:19;;;;;;;4.03;0.82;;;;;;;;;;5051464;28;20072;-70
2022/04/15 00:51:48;;;;;;;2.42;0.98;;;;;;;;;;5051415;28;20021;-71
2022/04/15 00:54:16;;;;;;;3.28;0.80;;;;;;;;;;5052621;28;20096;-72
2022/04/15 00:56:44;;;;;;;3.85;0.85;;;;;;;;;;5052760;28;20025;-72
2022/04/15 00:59:12;;;;;;;2.22;0.95;;;;;;;;;;5052708;28;20499;-71
2022/04/15 01:01:41;;;;;;;3.03;0.65;;;;;;;;;;5052728;28;20452;-71
2022/04/15 01:04:09;;;;;;;1.70;0.50;;;;;;;;;;5052555;28;20052;-71
2022/04/15 01:06:38;;;;;;;1.83;0.60;;;;;;;;;;5052411;28;20047;-71
2022/04/15 01:09:05;;;;;;;2.33;0.45;;;;;;;;;;5052896;28;20565;-70
2022/04/15 01:11:34;;;;;;;2.35;0.40;;;;;;;;;;5051180;28;20017;-70
2022/04/15 01:14:03;;;;;;;2.50;0.80;;;;;;;;;;5050791;28;20420;-70
2022/04/15 01:16:32;;;;;;;4.57;0.80;;;;;;;;;;5051167;28;20482;-69
2022/04/15 01:18:59;;;;;;;3.40;0.60;;;;;;;;;;5052409;28;20538;-70
2022/04/15 01:21:28;;;;;;;2.95;0.70;;;;;;;;;;5052398;28;20033;-70
2022/04/15 01:23:56;;;;;;;3.58;0.70;;;;;;;;;;5052261;28;20162;-70
2022/04/15 01:26:23;;;;;;;3.50;0.65;;;;;;;;;;5052138;28;20032;-71
2022/04/15 01:28:50;;;;;;;2.53;0.90;;;;;;;;;;5050913;28;20032;-71
2022/04/15 01:31:17;;;;;;;2.22;0.63;;;;;;;;;;5050868;28;20031;-72
2022/04/15 01:33:44;;;;;;;2.30;0.70;;;;;;;;;;5052137;28;20500;-72
2022/04/15 01:36:12;;;;;;;2.67;0.57;;;;;;;;;;5050686;28;20039;-71
2022/04/15 01:38:39;;;;;;;1.80;0.50;;;;;;;;;;5050831;28;20116;-72
2022/04/15 01:41:06;;;;;;;1.70;0.65;;;;;;;;;;5052123;28;20128;-71
2022/04/15 01:43:34;;;;;;;2.63;0.80;;;;;;;;;;5052139;28;20024;-72
2022/04/15 01:46:01;;;;;;;3.15;0.60;;;;;;;;;;5051980;28;20490;-72
2022/04/15 01:48:28;;;;;;;1.85;0.60;;;;;;;;;;5051986;28;20120;-70
2022/04/15 01:50:55;;;;;;;3.35;0.68;;;;;;;;;;5050643;28;20104;-69
2022/04/15 01:53:22;;;;;;;2.72;0.73;;;;;;;;;;5050585;28;20029;-70
2022/04/15 01:55:49;;;;;;;2.05;0.50;;;;;;;;;;5051888;28;20071;-71
2022/04/15 01:58:17;;;;;;;3.40;0.70;;;;;;;;;;5052047;28;20040;-69
2022/04/15 02:00:44;;;;;;;2.63;0.70;;;;;;;;;;5051929;28;20031;-70
2022/04/15 02:03:11;;;;;;;2.20;0.60;;;;;;;;;;5051945;28;20029;-69
2022/04/15 02:05:39;;;;;;;1.70;0.35;;;;;;;;;;5051818;28;20024;-69
2022/04/15 02:08:06;;;;;;;2.47;0.40;;;;;;;;;;5050603;28;20493;-68
2022/04/15 02:10:33;;;;;;;2.05;0.50;;;;;;;;;;5051859;28;20485;-70
2022/04/15 02:13:00;;;;;;;1.95;0.40;;;;;;;;;;5051737;28;20033;-70
2022/04/15 02:15:27;;;;;;;2.40;0.40;;;;;;;;;;5050623;28;20029;-69
2022/04/15 02:17:54;;;;;;;1.08;0.22;;;;;;;;;;5051776;28;20021;-70
2022/04/15 02:20:22;;;;;;;2.10;0.30;;;;;;;;;;5051831;28;20082;-70
2022/04/15 02:22:51;;;;;;;2.55;0.55;;;;;;;;;;5050498;28;20025;-70
2022/04/15 02:25:18;;;;;;;2.92;0.52;;;;;;;;;;5053153;28;20362;-71
2022/04/15 02:27:45;;;;;;;2.05;0.40;;;;;;;;;;5055501;28;20032;-70
2022/04/15 02:30:13;;;;;;;2.50;0.50;;;;;;;;;;5054268;28;20036;-69
2022/04/15 02:32:40;;;;;;;2.35;0.30;;;;;;;;;;5055393;28;20029;-70
2022/04/15 02:35:08;;;;;;;3.28;0.40;;;;;;;;;;5055560;28;20082;-70
2022/04/15 02:37:35;;;;;;;3.17;0.47;;;;;;;;;;5054075;28;20516;-71
2022/04/15 02:40:03;;;;;;;1.98;0.50;;;;;;;;;;5054172;28;20025;-70
2022/04/15 02:42:30;;;;;;;2.17;0.40;;;;;;;;;;5055190;28;20017;-70
2022/04/15 02:44:57;;;;;;;4.05;0.40;;;;;;;;;;5055210;28;20033;-70
2022/04/15 02:47:24;;;;;;;1.45;0.40;;;;;;;;;;5054958;28;20484;-72
2022/04/15 02:49:51;;;;;;;2.05;0.50;;;;;;;;;;5054000;28;20033;-72
2022/04/15 02:52:19;;;;;;;2.55;0.60;;;;;;;;;;5055038;28;20021;-71
2022/04/15 02:54:46;;;;;;;2.40;0.20;;;;;;;;;;5053844;28;20025;-71
2022/04/15 02:57:13;;;;;;;2.20;0.50;;;;;;;;;;5054942;28;20030;-72
2022/04/15 02:59:40;;;;;;;3.70;0.73;;;;;;;;;;5054925;28;20025;-71
2022/04/15 03:02:07;;;;;;;3.92;0.50;;;;;;;;;;5054926;28;20505;-71
2022/04/15 03:04:35;;;;;;;2.38;0.50;;;;;;;;;;5054733;28;20017;-71
2022/04/15 03:07:02;;;;;;;1.83;0.40;;;;;;;;;;5053321;28;20025;-73
2022/04/15 03:09:29;;;;;;;1.88;0.55;;;;;;;;;;5054511;28;20028;-71
2022/04/15 03:11:56;;;;;;;4.88;0.70;;;;;;;;;;5053127;28;20426;-72
2022/04/15 03:14:24;;;;;;;1.80;0.63;;;;;;;;;;5053291;28;20025;-71
2022/04/15 03:16:51;;;;;;;6.53;0.70;;;;;;;;;;5053151;28;20025;-72
2022/04/15 03:19:18;;;;;;;2.95;0.60;;;;;;;;;;5054492;28;20056;-74
2022/04/15 03:21:45;;;;;;;3.15;0.70;;;;;;;;;;5053161;28;20440;-73
2022/04/15 03:24:12;;;;;;;4.40;0.52;;;;;;;;;;5053062;28;20025;-74
2022/04/15 03:26:40;;;;;;;1.77;0.50;;;;;;;;;;5054416;28;20103;-74
2022/04/15 03:29:07;;;;;;;4.00;0.60;;;;;;;;;;5053126;28;20021;-74
2022/04/15 03:31:34;;;;;;;2.55;0.47;;;;;;;;;;5053106;28;20021;-73
2022/04/15 03:34:01;;;;;;;3.45;0.50;;;;;;;;;;5054135;28;20025;-73
2022/04/15 03:36:28;;;;;;;3.50;0.70;;;;;;;;;;5052794;28;20021;-74
2022/04/15 03:38:55;;;;;;;2.40;0.63;;;;;;;;;;5053111;28;20405;-74
2022/04/15 03:41:23;;;;;;;1.42;0.55;;;;;;;;;;5052895;28;20024;-73
2022/04/15 03:43:50;;;;;;;4.68;0.50;;;;;;;;;;5053797;28;20029;-73
2022/04/15 03:46:18;;;;;;;2.70;0.55;;;;;;;;;;5054181;28;20466;-74
2022/04/15 03:48:45;;;;;;;2.45;0.60;;;;;;;;;;5052606;28;20386;-73
2022/04/15 03:51:12;;;;;;;2.38;0.55;;;;;;;;;;5053954;28;20025;-73
2022/04/15 03:53:39;;;;;;;4.63;0.60;;;;;;;;;;5052563;28;20033;-73
2022/04/15 03:56:07;;;;;;;6.82;0.60;;;;;;;;;;5052606;28;20025;-73
2022/04/15 03:58:37;;;;;;;2.92;0.70;;;;;;;;;;5052609;28;20025;-74
2022/04/15 04:01:05;;;;;;;3.10;0.98;;;;;;;;;;5053785;28;20469;-73
2022/04/15 04:03:32;;;;;;;3.60;0.70;;;;;;;;;;5053707;28;20021;-73
2022/04/15 04:05:59;;;;;;;3.72;0.60;;;;;;;;;;5053736;28;20025;-74
2022/04/15 04:08:26;;;;;;;3.08;0.40;;;;;;;;;;5053687;28;20508;-73
2022/04/15 04:10:53;;;;;;;6.15;0.82;;;;;;;;;;5053624;28;20067;-73
2022/04/15 04:13:20;;;;;;;3.50;0.50;;;;;;;;;;5052302;28;20021;-74
2022/04/15 04:15:47;;;;;;;3.13;0.40;;;;;;;;;;5052257;28;20021;-73
2022/04/15 04:18:17;;;;;;;4.03;0.40;;;;;;;;;;5052264;28;20021;-74
2022/04/15 04:20:45;;;;;;;2.08;0.30;;;;;;;;;;5052081;28;20112;-74
2022/04/15 04:23:12;;;;;;;5.38;0.82;;;;;;;;;;5052166;28;20082;-73
2022/04/15 04:25:39;;;;;;;2.53;0.40;;;;;;;;;;5052081;28;20107;-74
2022/04/15 04:28:06;;;;;;;2.78;0.50;;;;;;;;;;5053278;28;20096;-74
2022/04/15 04:30:33;;;;;;;2.92;0.40;;;;;;;;;;5053305;28;20075;-74
2022/04/15 04:33:01;;;;;;;2.30;0.40;;;;;;;;;;5053148;28;20043;-73
2022/04/15 04:35:28;;;;;;;3.88;0.70;;;;;;;;;;5053122;28;20022;-74
2022/04/15 04:37:55;;;;;;;3.08;0.50;;;;;;;;;;5053194;28;20040;-74
2022/04/15 04:40:22;;;;;;;3.22;0.50;;;;;;;;;;5051724;28;20094;-73
2022/04/15 04:42:51;;;;;;;3.65;0.40;;;;;;;;;;5051783;28;20025;-73
2022/04/15 04:45:19;;;;;;;4.15;0.63;;;;;;;;;;5051585;28;20028;-74
2022/04/15 04:47:47;;;;;;;2.92;0.40;;;;;;;;;;5050851;28;20597;-73
2022/04/15 04:50:14;;;;;;;3.08;0.65;;;;;;;;;;5052897;28;20384;-74
2022/04/15 04:52:41;;;;;;;3.00;0.45;;;;;;;;;;5051499;28;20441;-74
2022/04/15 04:55:09;;;;;;;2.42;0.40;;;;;;;;;;5052824;28;20074;-74
2022/04/15 04:57:38;;;;;;;4.35;0.75;;;;;;;;;;5052745;28;20025;-73
2022/04/15 05:00:07;;;;;;;5.20;0.83;;;;;;;;;;5052846;28;20016;-74
2022/04/15 05:02:34;;;;;;;1.88;0.50;;;;;;;;;;5051381;28;20079;-74
2022/04/15 05:05:01;;;;;;;1.52;0.40;;;;;;;;;;5051315;28;20029;-73
2022/04/15 05:07:28;;;;;;;4.00;0.40;;;;;;;;;;5051278;28;20044;-72
2022/04/15 05:09:55;;;;;;;2.55;0.40;;;;;;;;;;5051222;28;20025;-73
2022/04/15 05:12:23;;;;;;;2.45;0.52;;;;;;;;;;5051071;28;20436;-73
2022/04/15 05:14:50;;;;;;;3.88;0.70;;;;;;;;;;5051193;28;20021;-73
2022/04/15 05:17:18;;;;;;;3.60;0.40;;;;;;;;;;5052460;28;20039;-73
2022/04/15 05:19:45;;;;;;;2.28;0.38;;;;;;;;;;5051169;28;20367;-73
2022/04/15 05:22:13;;;;;;;2.42;0.50;;;;;;;;;;5052300;28;20021;-73
2022/04/15 05:24:40;;;;;;;3.22;0.50;;;;;;;;;;5050923;28;20135;-73
2022/04/15 05:27:08;;;;;;;2.38;0.43;;;;;;;;;;5052244;28;20062;-73
2022/04/15 05:29:35;;;;;;;2.15;0.38;;;;;;;;;;5052224;28;20044;-73
2022/04/15 05:32:03;;;;;;;2.78;0.60;;;;;;;;;;5050716;28;20067;-74
2022/04/15 05:34:30;;;;;;;3.20;0.70;;;;;;;;;;5052205;28;20021;-73
2022/04/15 05:36:57;;;;;;;3.97;0.50;;;;;;;;;;5050818;28;20420;-72
2022/04/15 05:39:24;;;;;;;3.28;0.50;;;;;;;;;;5052083;28;20091;-72
2022/04/15 05:41:51;;;;;;;3.88;0.57;;;;;;;;;;5051974;28;20029;-74
2022/04/15 05:44:18;;;;;;;1.10;0.50;;;;;;;;;;5050748;28;20440;-74
2022/04/15 05:46:46;;;;;;;6.28;0.75;;;;;;;;;;5051963;28;20523;-74
2022/04/15 05:49:17;;;;;;;5.57;0.57;;;;;;;;;;5051832;28;20060;-74
2022/04/15 05:51:45;;;;;;;2.90;0.40;;;;;;;;;;5051059;28;20025;-74
2022/04/15 05:54:13;;;;;;;8.55;0.82;;;;;;;;;;5051885;28;20044;-74
2022/04/15 05:56:40;;;;;;;3.72;0.40;;;;;;;;;;5050701;28;20032;-74
2022/04/15 05:59:07;;;;;;;2.22;0.45;;;;;;;;;;5051910;28;20025;-75
2022/04/15 06:01:35;;;;;;;2.13;0.28;;;;;;;;;;5055461;28;20414;-73
2022/04/15 06:04:02;;;;;;;2.70;0.75;;;;;;;;;;5055876;28;20028;-74
2022/04/15 06:06:29;;;;;;;2.78;0.40;;;;;;;;;;5055868;28;20025;-74
2022/04/15 06:08:56;;;;;;;2.55;0.65;;;;;;;;;;5055805;28;20025;-74
2022/04/15 06:11:25;;;;;;;2.58;0.40;;;;;;;;;;5055867;28;20051;-73
2022/04/15 06:13:52;;;;;;;2.05;0.50;;;;;;;;;;5055609;28;20056;-75
2022/04/15 06:16:20;;;;;;;2.47;0.40;;;;;;;;;;5054413;28;20163;-73
2022/04/15 06:18:47;;;;;;;4.55;0.45;;;;;;;;;;5054283;28;20032;-73
2022/04/15 06:21:15;;;;;;;1.45;0.40;;;;;;;;;;5055727;28;20040;-73
2022/04/15 06:23:42;;;;;;;3.60;0.88;;;;;;;;;;5054084;28;20106;-72
2022/04/15 06:26:09;;;;;;;2.08;0.30;;;;;;;;;;5055562;28;20033;-73
2022/04/15 06:28:36;;;;;;;1.42;0.22;;;;;;;;;;5054181;28;20060;-73
2022/04/15 06:31:03;;;;;;;5.50;0.40;;;;;;;;;;5055437;28;20025;-72
2022/04/15 06:36:35;;;;;;;4.35;0.50;;;;;;;;;;5055566;28;20059;-72
2022/04/15 06:39:02;;;;;;;2.45;0.50;;;;;;;;;;5055218;28;20025;-72
2022/04/15 06:41:30;;;;;;;3.22;0.65;;;;;;;;;;5055199;28;20497;-73
2022/04/15 06:43:57;;;;;;;1.80;0.52;;;;;;;;;;5054193;28;20044;-73
2022/04/15 06:46:24;;;;;;;1.30;0.52;;;;;;;;;;5055233;28;20027;-73
2022/04/15 06:48:51;;;;;;;2.03;0.22;;;;;;;;;;5054951;28;20049;-72
2022/04/15 06:51:19;;;;;;;1.25;0.40;;;;;;;;;;5055138;28;20043;-74
2022/04/15 06:53:46;;;;;;;2.45;0.63;;;;;;;;;;5054995;28;20511;-72
2022/04/15 06:56:14;;;;;;;3.60;0.40;;;;;;;;;;5055089;28;20020;-73
2022/04/15 06:58:42;;;;;;;4.00;0.75;;;;;;;;;;5053618;28;20120;-74
2022/04/15 07:01:09;;;;;;;1.65;0.40;;;;;;;;;;5053715;28;20017;-72
2022/04/15 07:03:39;;;;;;;3.78;0.90;;;;;;;;;;5053516;28;20025;-72
2022/04/15 07:06:06;;;;;;;2.67;0.35;;;;;;;;;;5053665;28;20044;-72
2022/04/15 07:08:33;;;;;;;1.23;0.60;;;;;;;;;;5054783;28;20021;-72
2022/04/15 07:11:02;;;;;;;5.50;0.60;;;;;;;;;;5054073;28;20116;-71
2022/04/15 07:13:30;;;;;;;6.72;0.60;;;;;;;;;;5053315;28;20052;-72
2022/04/15 07:15:57;;;;;;;4.25;0.63;;;;;;;;;;5053171;28;20405;-73
2022/04/15 07:18:24;;;;;;;4.35;0.70;;;;;;;;;;5054568;28;20529;-74
2022/04/15 07:20:51;;;;;;;3.95;0.63;;;;;;;;;;5053205;28;20127;-74
2022/04/15 07:23:18;;;;;;;1.60;0.50;;;;;;;;;;5053267;28;20033;-74
2022/04/15 07:25:45;;;;;;;3.20;0.50;;;;;;;;;;5054382;28;20021;-73
2022/04/15 07:28:12;;;;;;;4.35;1.05;;;;;;;;;;5053176;28;20397;-73
2022/04/15 07:30:40;;;;;;;4.25;0.70;;;;;;;;;;5054310;28;20533;-73
2022/04/15 07:33:07;;;;;;;4.35;0.70;;;;;;;;;;5054278;28;20050;-74
2022/04/15 07:35:34;;;;;;;3.58;0.70;;;;;;;;;;5054245;28;20025;-73
2022/04/15 07:38:01;;;;;;;3.80;0.70;;;;;;;;;;5054263;28;20029;-73
2022/04/15 07:40:29;;;;;;;1.88;0.50;;;;;;;;;;5054010;28;20028;-73
2022/04/15 07:42:59;;;;;;;2.47;0.60;;;;;;;;;;5054144;28;20021;-73
2022/04/15 07:45:26;;;;;;;6.05;0.75;;;;;;;;;;5052670;28;20062;-73
2022/04/15 07:47:53;;;;;;;7.82;1.65;;;;;;;;;;5052620;28;20056;-73
2022/04/15 07:50:23;;;;;;;5.07;1.00;;;;;;;;;;5053856;28;20025;-73
2022/04/15 07:52:51;;;;;;;2.13;0.75;;;;;;;;;;5052799;28;20037;-74
2022/04/15 07:55:18;;;;;;;3.38;0.80;;;;;;;;;;5052477;28;20434;-74
2022/04/15 07:57:45;;;;;;;3.58;0.70;;;;;;;;;;5052462;28;20066;-73
2022/04/15 08:00:13;;;;;;;2.80;0.60;;;;;;;;;;5053798;28;20096;-73
2022/04/15 08:02:41;;;;;;;1.73;0.45;;;;;;;;;;5052448;28;20029;-73
2022/04/15 08:05:09;;;;;;;1.65;0.30;;;;;;;;;;5052191;28;20049;-74
2022/04/15 08:07:36;;;;;;;3.13;0.68;;;;;;;;;;5053857;28;20096;-73
2022/04/15 08:10:05;;;;;;;3.67;0.65;;;;;;;;;;5053798;28;20049;-72
2022/04/15 08:12:32;;;;;;;2.83;0.65;;;;;;;;;;5052271;28;20068;-71
2022/04/15 08:15:00;;;;;;;2.97;0.63;;;;;;;;;;5053496;28;20045;-72
2022/04/15 08:17:29;;;;;;;2.38;0.60;;;;;;;;;;5053584;28;20500;-71
2022/04/15 08:19:56;;;;;;;6.07;1.13;;;;;;;;;;5052161;28;20032;-72
2022/04/15 08:22:23;;;;;;;3.00;0.60;;;;;;;;;;5051438;28;20378;-71
2022/04/15 08:24:51;;;;;;;2.92;0.60;;;;;;;;;;5051970;28;20497;-71
2022/04/15 08:27:18;;;;;;;3.17;0.60;;;;;;;;;;5053391;28;20025;-71
2022/04/15 08:29:45;;;;;;;3.03;0.65;;;;;;;;;;5052155;28;20063;-72
2022/04/15 08:32:12;;;;;;;3.30;0.85;;;;;;;;;;5053192;28;20025;-71
2022/04/15 08:34:40;;;;;;;3.22;0.73;;;;;;;;;;5053338;28;20358;-71
2022/04/15 08:37:07;;;;;;;2.85;0.70;;;;;;;;;;5053273;28;20017;-71
2022/04/15 08:39:34;;;;;;;3.20;0.80;;;;;;;;;;5053131;28;20103;-72
2022/04/15 08:42:02;;;;;;;3.13;0.95;;;;;;;;;;5051803;28;20116;-72
2022/04/15 08:44:31;;;;;;;4.10;1.10;;;;;;;;;;5053037;28;20025;-72
2022/04/15 08:46:59;;;;;;;3.75;1.23;;;;;;;;;;5052865;28;20029;-73
2022/04/15 08:49:27;;;;;;;3.28;0.90;;;;;;;;;;5051538;28;20045;-73
2022/04/15 08:51:54;;;;;;;3.33;0.80;;;;;;;;;;5051790;28;20083;-74
2022/04/15 08:54:21;;;;;;;1.65;0.70;;;;;;;;;;5051592;28;20052;-73
2022/04/15 08:56:49;;;;;;;2.65;0.80;;;;;;;;;;5052905;28;20017;-72
2022/04/15 08:59:16;;;;;;;1.48;0.77;;;;;;;;;;5052856;28;20070;-71
2022/04/15 09:01:43;;;;;;;3.13;1.13;;;;;;;;;;5052827;28;20027;-72
2022/04/15 09:04:11;;;;;;;4.30;1.35;;;;;;;;;;5051343;28;20075;-73
2022/04/15 09:06:38;;;;;;;4.95;1.15;;;;;;;;;;5051439;28;20025;-73
2022/04/15 09:09:12;;;;;;;3.47;1.27;;;;;;;;;;5051358;28;20036;-71
2022/04/15 09:11:40;;;;;;;4.68;1.10;;;;;;;;;;5052706;28;20481;-72
2022/04/15 09:14:11;;;;;;;5.00;1.13;;;;;;;;;;5052420;28;20036;-73
2022/04/15 09:16:39;;;;;;;3.22;1.25;;;;;;;;;;5051223;28;20031;-73
2022/04/15 09:19:07;;;;;;;5.55;1.45;;;;;;;;;;5052497;28;20021;-71
2022/04/15 09:21:34;;;;;;;2.92;1.00;;;;;;;;;;5052453;28;20020;-72
2022/04/15 09:24:02;;;;;;;3.38;0.80;;;;;;;;;;5052427;28;20025;-73
2022/04/15 09:26:29;;;;;;;4.13;1.33;;;;;;;;;;5052134;28;20029;-73
2022/04/15 09:28:56;;;;;;;2.33;0.80;;;;;;;;;;5052182;28;20465;-74
2022/04/15 09:31:24;;;;;;;3.42;0.80;;;;;;;;;;5050848;28;20024;-73
2022/04/15 09:33:55;;;;;;;2.97;0.90;;;;;;;;;;5051856;28;20025;-73
2022/04/15 09:36:32;;;;;;;3.38;0.98;;;;;;;;;;5051062;28;20028;-73
2022/04/15 09:39:01;;;;;;;3.13;1.00;;;;;;;;;;5052167;28;20025;-74
2022/04/15 09:41:29;;;;;;;3.78;0.95;;;;;;;;;;5052181;28;20477;-74
2022/04/15 09:43:58;;;;;;;2.70;0.88;;;;;;;;;;5052020;28;20047;-76
2022/04/15 09:46:27;;;;;;;3.08;0.88;;;;;;;;;;5050735;28;20032;-75
2022/04/15 09:49:07;;;;;;;7.00;1.48;;;;;;;;;;5051731;28;20137;-74
2022/04/15 09:51:34;;;;;;;5.10;0.98;;;;;;;;;;5052082;28;20035;-73
2022/04/15 09:54:05;;;;;;;4.22;0.95;;;;;;;;;;5051887;28;20349;-72
2022/04/15 09:56:36;;;;;;;3.10;0.70;;;;;;;;;;5051938;28;20390;-72
2022/04/15 09:59:06;;;;;;;3.17;0.85;;;;;;;;;;5051971;28;20024;-72
2022/04/15 10:01:40;;;;;;;2.92;0.75;;;;;;;;;;5051918;28;20120;-72
2022/04/15 10:04:08;;;;;;;1.52;0.57;;;;;;;;;;5051784;28;20063;-73
2022/04/15 10:06:36;;;;;;;2.70;0.85;;;;;;;;;;5051812;28;20021;-73
2022/04/15 10:09:06;;;;;;;3.20;1.05;;;;;;;;;;5051844;28;20029;-72
2022/04/15 10:11:35;;;;;;;3.13;0.83;;;;;;;;;;5050502;28;20029;-73
2022/04/15 10:14:03;;;;;;;2.55;0.70;;;;;;;;;;5051667;28;20024;-73
2022/04/15 10:16:32;;;;;;;3.67;0.90;;;;;;;;;;5051815;28;20100;-72
2022/04/15 10:19:01;;;;;;;3.28;0.90;;;;;;;;;;5051740;28;20092;-74
2022/04/15 10:21:28;;;;;;;2.63;0.68;;;;;;;;;;5051620;28;20102;-74
2022/04/15 10:23:56;;;;;;;3.22;1.00;;;;;;;;;;5051568;28;20029;-72
2022/04/15 10:26:23;;;;;;;4.22;1.10;;;;;;;;;;5050157;28;20111;-73
2022/04/15 10:28:54;;;;;;;3.60;1.00;;;;;;;;;;5050313;28;20059;-73
2022/04/15 10:31:21;;;;;;;;;;;;;;;;;;5050811;28;20075;-73
2022/04/15 10:33:49;;;;;;;2.08;0.88;;;;;;;;;;5051470;28;20383;-73
2022/04/15 10:36:18;;;;;;;2.67;0.90;;;;;;;;;;5050172;28;20017;-73
2022/04/15 10:39:09;;;;;;;4.35;0.93;;;;;;;;;;5051527;28;20024;-73
2022/04/15 10:41:42;;;;;;;2.38;0.90;;;;;;;;;;5047337;28;20486;-74
2022/04/15 10:44:13;;;;;;;1.48;0.98;;;;;;;;;;5050273;28;20048;-73
2022/04/15 10:46:40;;;;;;;2.88;0.80;;;;;;;;;;5051921;28;20021;-72
2022/04/15 10:49:23;;;;;;;2.33;0.95;;;;;;;;;;5053611;28;20107;-73
2022/04/15 10:51:59;;;;;;;1.63;0.70;;;;;;;;;;5053867;28;20404;-72
2022/04/15 10:54:48;;;;;;;3.72;0.80;;;;;;;;;;5055071;28;20111;-73
2022/04/15 10:57:19;;;;;;;6.63;1.25;;;;;;;;;;5055077;28;20120;-72
2022/04/15 11:02:53;;;;;;;3.50;1.17;;;;;;;;;;5054969;28;20036;-72
2022/04/15 11:05:35;;;;;;;4.40;1.00;;;;;;;;;;5053497;28;20039;-72
2022/04/15 11:08:11;;;;;;;3.55;1.00;;;;;;;;;;5054867;28;20052;-72
2022/04/15 11:10:41;;;;;;;3.35;0.90;;;;;;;;;;5054709;28;20158;-71
2022/04/15 11:13:09;;;;;;;3.80;0.80;;;;;;;;;;5053279;28;20057;-72
2022/04/15 11:15:55;;;;;;;1.48;0.70;;;;;;;;;;5054753;28;20100;-72
2022/04/15 11:18:22;;;;;;;3.78;1.08;;;;;;;;;;5054592;28;20025;-72
2022/04/15 11:20:49;;;;;;;4.10;1.00;;;;;;;;;;5053252;28;20033;-72
2022/04/15 11:23:17;;;;;;;4.43;1.05;;;;;;;;;;5054474;28;20162;-72
2022/04/15 11:25:44;;;;;;;2.83;1.15;;;;;;;;;;5054501;28;20032;-72
2022/04/15 11:28:12;;;;;;;2.00;0.75;;;;;;;;;;5053085;28;20125;-72
2022/04/15 11:30:39;;;;;;;1.77;0.77;;;;;;;;;;5054374;28;20032;-72
2022/04/15 11:33:06;;;;;;;3.00;1.10;;;;;;;;;;5054274;28;20028;-73
2022/04/15 11:35:35;;;;;;;2.83;0.80;;;;;;;;;;5053053;28;20021;-72
2022/04/15 11:38:06;;;;;;;2.92;1.00;;;;;;;;;;5052965;28;20044;-73
2022/04/15 11:40:35;;;;;;;3.05;0.85;;;;;;;;;;5054171;28;20040;-73
2022/04/15 11:43:06;;;;;;;3.58;0.70;;;;;;;;;;5054194;28;20025;-73
2022/04/15 11:45:34;;;;;;;8.85;1.15;;;;;;;;;;5052868;28;20053;-73
2022/04/15 11:48:16;;;;;;;3.30;0.60;;;;;;;;;;5053898;28;20065;-73
2022/04/15 11:50:44;;;;;;;1.63;0.50;;;;;;;;;;5054024;28;20039;-73
2022/04/15 11:53:12;;;;;;;3.78;1.15;;;;;;;;;;5053907;28;20025;-73
2022/04/15 11:55:53;;;;;;;2.97;0.80;;;;;;;;;;5052730;28;20025;-73
2022/04/15 11:58:24;;;;;;;4.93;0.90;;;;;;;;;;5052607;28;20481;-73
2022/04/15 12:00:50;;;;;;;;;;;;;;;;;;5054346;28;20108;-73
2022/04/15 12:03:17;;;;;;;2.45;1.10;;;;;;;;;;5052525;28;19909;-73
2022/04/15 12:05:45;;;;;;;3.67;0.93;;;;;;;;;;5053642;28;20021;-73
2022/04/15 12:08:12;;;;;;;5.07;1.30;;;;;;;;;;5052373;28;20434;-72
2022/04/15 12:10:40;;;;;;;3.55;0.88;;;;;;;;;;5052707;28;20064;-72
2022/04/15 12:13:10;;;;;;;2.00;0.93;;;;;;;;;;5053498;28;20164;-72
2022/04/15 12:15:37;;;;;;;5.32;0.98;;;;;;;;;;5053606;28;20427;-72
2022/04/15 12:18:05;;;;;;;4.30;1.10;;;;;;;;;;5053641;28;20029;-74
2022/04/15 12:20:36;;;;;;;2.55;1.23;;;;;;;;;;5053526;28;20078;-73
2022/04/15 12:23:04;;;;;;;3.10;1.40;;;;;;;;;;5052167;28;20096;-73
2022/04/15 12:31:01;;;;;;;2.30;0.93;;;;;;;;;;5053700;28;20040;-72
2022/04/15 12:33:29;;;;;;;2.33;1.00;;;;;;;;;;5051882;28;20074;-72
2022/04/15 12:36:01;;;;;;;3.50;1.20;;;;;;;;;;5053253;28;20021;-71
2022/04/15 12:38:28;;;;;;;5.97;1.30;;;;;;;;;;5053150;28;20037;-72
2022/04/15 12:41:10;;;;;;;2.95;1.20;;;;;;;;;;5053159;28;20088;-72
2022/04/15 12:43:37;;;;;;;3.15;1.30;;;;;;;;;;5053123;28;20025;-73
2022/04/15 12:46:05;;;;;;;3.05;1.02;;;;;;;;;;5053107;28;20032;-72
2022/04/15 12:48:33;;;;;;;3.53;1.27;;;;;;;;;;5052779;28;20041;-72
2022/04/15 12:51:01;;;;;;;3.58;1.10;;;;;;;;;;5052885;28;20044;-73
2022/04/15 12:53:30;;;;;;;2.67;1.05;;;;;;;;;;5051461;28;20036;-73
2022/04/15 12:56:08;;;;;;;3.40;1.50;;;;;;;;;;5051391;28;20017;-73
2022/04/15 12:58:39;;;;;;;2.60;1.23;;;;;;;;;;5052693;28;20053;-74
2022/04/15 13:01:06;;;;;;;4.47;1.58;;;;;;;;;;5052852;28;20539;-74
2022/04/15 13:03:36;;;;;;;3.45;1.40;;;;;;;;;;5052665;28;20021;-72
2022/04/15 13:06:05;;;;;;;5.18;1.77;;;;;;;;;;5052684;28;20031;-74
2022/04/15 13:08:32;;;;;;;3.13;1.20;;;;;;;;;;5050834;28;20035;-74
2022/04/15 13:11:00;;;;;;;4.40;1.63;;;;;;;;;;5052686;28;20025;-74
2022/04/15 13:13:27;;;;;;;3.60;1.58;;;;;;;;;;5052476;28;20025;-74
2022/04/15 13:15:55;;;;;;;4.88;1.33;;;;;;;;;;5052497;28;20017;-73
2022/04/15 13:18:22;;;;;;;2.53;1.30;;;;;;;;;;5052492;28;20021;-74
2022/04/15 13:20:49;;;;;;;6.05;1.60;;;;;;;;;;5052484;28;20539;-73
2022/04/15 13:23:16;;;;;;;2.17;1.20;;;;;;;;;;5052365;28;20021;-74
2022/04/15 13:25:44;;;;;;;1.92;1.15;;;;;;;;;;5052337;28;20096;-74
2022/04/15 13:28:11;;;;;;;2.42;1.25;;;;;;;;;;5051077;28;20037;-73
2022/04/15 13:30:40;;;;;;;2.95;1.50;;;;;;;;;;5052330;28;20034;-73
2022/04/15 13:33:08;;;;;;;2.15;1.10;;;;;;;;;;5052204;28;20029;-71
2022/04/15 13:35:35;;;;;;;4.50;1.58;;;;;;;;;;5052233;28;20496;-73
2022/04/15 13:38:02;;;;;;;3.70;1.42;;;;;;;;;;5050923;28;20558;-72
2022/04/15 13:40:29;;;;;;;2.40;1.35;;;;;;;;;;5052277;28;20048;-74
2022/04/15 13:42:57;;;;;;;2.33;1.20;;;;;;;;;;5052213;28;20025;-72
2022/04/15 13:45:24;;;;;;;3.35;1.30;;;;;;;;;;5050850;28;20033;-72
2022/04/15 13:47:51;;;;;;;3.63;1.65;;;;;;;;;;5050669;28;20425;-73
2022/04/15 13:50:18;;;;;;;3.10;1.65;;;;;;;;;;5052189;28;20478;-72
2022/04/15 13:58:16;;;;;;;4.53;1.60;;;;;;;;;;5052038;28;20090;-74
2022/04/15 14:00:43;;;;;;;2.97;1.33;;;;;;;;;;5052037;28;20389;-72
2022/04/15 14:03:10;;;;;;;3.65;1.67;;;;;;;;;;5051910;28;20051;-74
2022/04/15 14:05:37;;;;;;;1.83;1.17;;;;;;;;;;5050500;28;20036;-74
2022/04/15 14:08:05;;;;;;;3.80;1.40;;;;;;;;;;5050627;28;20048;-74
2022/04/15 14:10:34;;;;;;;2.42;1.42;;;;;;;;;;5051984;28;20048;-73
2022/04/15 14:13:02;;;;;;;4.82;1.60;;;;;;;;;;5051894;28;20032;-73
2022/04/15 14:15:29;;;;;;;4.00;1.70;;;;;;;;;;5050613;28;20082;-72
2022/04/15 14:17:58;;;;;;;3.58;1.63;;;;;;;;;;5050666;28;20044;-72
2022/04/15 14:20:26;;;;;;;2.75;1.30;;;;;;;;;;5051988;28;20018;-73
2022/04/15 14:22:53;;;;;;;3.72;1.30;;;;;;;;;;5054551;28;20033;-73
2022/04/15 14:25:20;;;;;;;3.50;1.58;;;;;;;;;;5054406;28;20036;-73
2022/04/15 14:27:47;;;;;;;3.05;1.50;;;;;;;;;;5055770;28;20029;-73
2022/04/15 14:30:14;;;;;;;5.88;2.10;;;;;;;;;;5054326;28;20025;-73
2022/04/15 14:32:41;;;;;;;4.20;1.65;;;;;;;;;;5055481;28;20033;-73
2022/04/15 14:35:09;;;;;;;4.97;1.88;;;;;;;;;;5054167;28;20108;-73
2022/04/15 14:37:37;;;;;;;3.47;1.38;;;;;;;;;;5054151;28;20024;-73
2022/04/15 14:40:04;;;;;;;4.05;1.63;;;;;;;;;;5054216;28;20021;-73
2022/04/15 14:42:32;;;;;;;2.88;1.38;;;;;;;;;;5054109;28;20029;-73
2022/04/15 14:45:01;;;;;;;5.38;2.08;;;;;;;;;;5054153;28;20501;-73
2022/04/15 14:47:29;;;;;;;5.00;1.58;;;;;;;;;;5055045;28;20075;-72
2022/04/15 14:49:56;;;;;;;2.92;1.52;;;;;;;;;;5055217;28;20052;-72
2022/04/15 14:52:23;;;;;;;4.38;1.65;;;;;;;;;;5053838;28;20031;-72
2022/04/15 14:54:51;;;;;;;2.58;1.77;;;;;;;;;;5053939;28;20507;-73
2022/04/15 14:57:18;;;;;;;2.72;1.50;;;;;;;;;;5055153;28;20100;-72
2022/04/15 14:59:45;;;;;;;3.05;1.60;;;;;;;;;;5053789;28;20052;-73
2022/04/15 15:02:13;;;;;;;2.28;1.42;;;;;;;;;;5055074;28;20036;-73
2022/04/15 15:04:40;;;;;;;3.85;1.50;;;;;;;;;;5054948;28;20045;-73